sensor_id;sensor_type;location;lat;lon;timestamp;pressure;altitude;pressure_sealevel;temperature;humidity
967;BME280;56108;48.730;9.304;2023-08-12T00:00:09;97836.16;;;19.88;100.00
967;BME280;56108;48.730;9.304;2023-08-12T00:03:00;97839.97;;;19.77;100.00
967;BME280;56108;48.730;9.304;2023-08-12T00:05:52;97830.53;;;19.81;100.00
967;BME280;56108;48.730;9.304;2023-08-12T00:08:30;97827.19;;;19.88;100.00
967;BME280;56108;48.730;9.304;2023-08-12T00:11:45;97832.66;;;19.96;100.00
967;BME280;56108;48.730;9.304;2023-08-12T00:14:48;97830.34;;;20.01;100.00
967;BME280;56108;48.730;9.304;2023-08-12T00:17:36;97831.44;;;19.90;100.00
967;BME280;56108;48.730;9.304;2023-08-12T00:20:37;97822.41;;;19.73;100.00
967;BME280;56108;48.730;9.304;2023-08-12T00:23:28;97827.84;;;19.81;100.00
967;BME280;56108;48.730;9.304;2023-08-12T00:28:51;97806.97;;;19.92;100.00
967;BME280;56108;48.730;9.304;2023-08-12T00:31:09;97809.19;;;19.96;100.00
967;BME280;56108;48.730;9.304;2023-08-12T00:33:55;97800.19;;;19.88;100.00
967;BME280;56108;48.730;9.304;2023-08-12T00:36:29;97796.94;;;19.58;100.00
967;BME280;56108;48.730;9.304;2023-08-12T00:39:07;97793.84;;;19.27;100.00
967;BME280;56108;48.730;9.304;2023-08-12T00:41:29;97786.13;;;19.14;100.00
967;BME280;56108;48.730;9.304;2023-08-12T00:44:19;97783.78;;;19.11;100.00
967;BME280;56108;48.730;9.304;2023-08-12T00:47:05;97784.38;;;19.05;100.00
967;BME280;56108;48.730;9.304;2023-08-12T00:50:12;97780.69;;;19.06;100.00
967;BME280;56108;48.730;9.304;2023-08-12T00:56:23;97766.34;;;18.88;100.00
967;BME280;56108;48.730;9.304;2023-08-12T00:59:04;97765.03;;;18.74;100.00
967;BME280;56108;48.730;9.304;2023-08-12T01:04:36;97762.41;;;18.64;100.00
967;BME280;56108;48.730;9.304;2023-08-12T01:07:02;97756.63;;;18.59;100.00
967;BME280;56108;48.730;9.304;2023-08-12T01:09:34;97763.59;;;18.52;100.00
967;BME280;56108;48.730;9.304;2023-08-12T01:12:12;97752.03;;;18.42;100.00
967;BME280;56108;48.730;9.304;2023-08-12T01:14:45;97747.09;;;18.37;100.00
967;BME280;56108;48.730;9.304;2023-08-12T01:17:28;97744.97;;;18.41;100.00
967;BME280;56108;48.730;9.304;2023-08-12T01:20:01;97733.56;;;18.29;100.00
967;BME280;56108;48.730;9.304;2023-08-12T01:22:50;97731.16;;;18.26;100.00
967;BME280;56108;48.730;9.304;2023-08-12T01:25:48;97728.63;;;18.24;100.00
967;BME280;56108;48.730;9.304;2023-08-12T01:28:25;97732.56;;;18.30;100.00
967;BME280;56108;48.730;9.304;2023-08-12T01:31:01;97731.03;;;18.28;100.00
967;BME280;56108;48.730;9.304;2023-08-12T01:34:05;97730.47;;;18.24;100.00
967;BME280;56108;48.730;9.304;2023-08-12T01:37:17;97730.31;;;18.25;100.00
967;BME280;56108;48.730;9.304;2023-08-12T01:39:47;97728.91;;;18.21;100.00
967;BME280;56108;48.730;9.304;2023-08-12T01:43:22;97724.84;;;18.17;100.00
967;BME280;56108;48.730;9.304;2023-08-12T01:46:15;97723.13;;;18.16;100.00
967;BME280;56108;48.730;9.304;2023-08-12T01:48:54;97716.03;;;18.15;100.00
967;BME280;56108;48.730;9.304;2023-08-12T01:51:37;97711.28;;;18.09;100.00
967;BME280;56108;48.730;9.304;2023-08-12T01:54:15;97710.88;;;18.04;100.00
967;BME280;56108;48.730;9.304;2023-08-12T01:59:13;97709.88;;;18.05;100.00
967;BME280;56108;48.730;9.304;2023-08-12T02:01:32;97706.66;;;18.02;100.00
967;BME280;56108;48.730;9.304;2023-08-12T02:04:03;97715.13;;;18.07;100.00
967;BME280;56108;48.730;9.304;2023-08-12T02:06:52;97705.81;;;18.01;100.00
967;BME280;56108;48.730;9.304;2023-08-12T02:09:43;97710.88;;;18.04;100.00
967;BME280;56108;48.730;9.304;2023-08-12T02:18:11;97704.47;;;18.05;100.00
967;BME280;56108;48.730;9.304;2023-08-12T02:20:26;97704.34;;;18.07;100.00
967;BME280;56108;48.730;9.304;2023-08-12T02:23:29;97705.88;;;18.09;100.00
967;BME280;56108;48.730;9.304;2023-08-12T02:26:13;97695.50;;;18.14;100.00
967;BME280;56108;48.730;9.304;2023-08-12T02:29:06;97706.66;;;18.19;100.00
967;BME280;56108;48.730;9.304;2023-08-12T02:31:43;97704.38;;;18.24;100.00
967;BME280;56108;48.730;9.304;2023-08-12T02:34:07;97709.06;;;18.22;100.00
967;BME280;56108;48.730;9.304;2023-08-12T02:36:35;97703.38;;;18.25;100.00
967;BME280;56108;48.730;9.304;2023-08-12T02:39:08;97703.59;;;18.32;100.00
967;BME280;56108;48.730;9.304;2023-08-12T02:41:28;97701.16;;;18.39;100.00
967;BME280;56108;48.730;9.304;2023-08-12T02:43:38;97701.38;;;18.28;100.00
967;BME280;56108;48.730;9.304;2023-08-12T02:45:58;97699.53;;;18.28;100.00
967;BME280;56108;48.730;9.304;2023-08-12T02:48:20;97694.16;;;18.28;100.00
967;BME280;56108;48.730;9.304;2023-08-12T02:50:47;97697.69;;;18.29;100.00
967;BME280;56108;48.730;9.304;2023-08-12T02:53:12;97684.84;;;18.22;100.00
967;BME280;56108;48.730;9.304;2023-08-12T02:56:00;97680.34;;;18.13;100.00
967;BME280;56108;48.730;9.304;2023-08-12T03:04:17;97680.00;;;17.98;100.00
967;BME280;56108;48.730;9.304;2023-08-12T03:07:04;97665.00;;;17.96;100.00
967;BME280;56108;48.730;9.304;2023-08-12T03:10:24;97674.91;;;17.95;100.00
967;BME280;56108;48.730;9.304;2023-08-12T03:13:32;97671.78;;;18.00;100.00
967;BME280;56108;48.730;9.304;2023-08-12T03:16:28;97673.00;;;18.06;100.00
967;BME280;56108;48.730;9.304;2023-08-12T03:19:39;97671.16;;;18.06;100.00
967;BME280;56108;48.730;9.304;2023-08-12T03:22:36;97674.56;;;18.08;100.00
967;BME280;56108;48.730;9.304;2023-08-12T03:25:20;97672.56;;;18.10;100.00
967;BME280;56108;48.730;9.304;2023-08-12T03:27:31;97674.25;;;18.11;100.00
967;BME280;56108;48.730;9.304;2023-08-12T03:29:54;97670.19;;;18.07;100.00
967;BME280;56108;48.730;9.304;2023-08-12T03:32:42;97671.88;;;18.08;100.00
967;BME280;56108;48.730;9.304;2023-08-12T03:35:19;97661.38;;;18.05;100.00
967;BME280;56108;48.730;9.304;2023-08-12T03:37:58;97658.00;;;18.03;100.00
967;BME280;56108;48.730;9.304;2023-08-12T03:43:25;97663.06;;;18.06;100.00
967;BME280;56108;48.730;9.304;2023-08-12T03:46:00;97659.25;;;18.09;100.00
967;BME280;56108;48.730;9.304;2023-08-12T03:48:42;97660.94;;;18.10;100.00
967;BME280;56108;48.730;9.304;2023-08-12T03:51:21;97665.88;;;18.14;100.00
967;BME280;56108;48.730;9.304;2023-08-12T04:00:13;97659.03;;;18.20;100.00
967;BME280;56108;48.730;9.304;2023-08-12T04:02:49;97666.66;;;18.24;100.00
967;BME280;56108;48.730;9.304;2023-08-12T04:05:16;97669.34;;;18.24;100.00
967;BME280;56108;48.730;9.304;2023-08-12T04:07:44;97667.66;;;18.23;100.00
967;BME280;56108;48.730;9.304;2023-08-12T04:09:59;97675.28;;;18.28;100.00
967;BME280;56108;48.730;9.304;2023-08-12T04:12:13;97676.75;;;18.40;100.00
967;BME280;56108;48.730;9.304;2023-08-12T04:14:22;97667.03;;;18.30;100.00
967;BME280;56108;48.730;9.304;2023-08-12T04:16:39;97669.06;;;18.28;100.00
967;BME280;56108;48.730;9.304;2023-08-12T04:18:58;97671.88;;;18.26;100.00
967;BME280;56108;48.730;9.304;2023-08-12T04:21:15;97682.03;;;18.32;100.00
967;BME280;56108;48.730;9.304;2023-08-12T04:24:02;97675.50;;;18.35;100.00
967;BME280;56108;48.730;9.304;2023-08-12T04:27:05;97680.34;;;18.31;100.00
967;BME280;56108;48.730;9.304;2023-08-12T04:29:17;97674.28;;;18.29;100.00
967;BME280;56108;48.730;9.304;2023-08-12T04:34:39;97685.91;;;18.47;100.00
967;BME280;56108;48.730;9.304;2023-08-12T04:37:18;97702.31;;;18.54;100.00
967;BME280;56108;48.730;9.304;2023-08-12T04:39:42;97694.84;;;18.48;100.00
967;BME280;56108;48.730;9.304;2023-08-12T04:43:06;97701.59;;;18.52;100.00
967;BME280;56108;48.730;9.304;2023-08-12T04:46:13;97701.47;;;18.54;100.00
967;BME280;56108;48.730;9.304;2023-08-12T04:48:41;97721.41;;;18.61;100.00
967;BME280;56108;48.730;9.304;2023-08-12T04:51:30;97712.97;;;18.73;100.00
967;BME280;56108;48.730;9.304;2023-08-12T04:54:18;97716.19;;;18.77;100.00
967;BME280;56108;48.730;9.304;2023-08-12T04:56:44;97711.19;;;18.82;100.00
967;BME280;56108;48.730;9.304;2023-08-12T04:58:57;97706.63;;;18.83;100.00
967;BME280;56108;48.730;9.304;2023-08-12T05:01:28;97702.44;;;18.80;100.00
967;BME280;56108;48.730;9.304;2023-08-12T05:03:48;97700.47;;;18.72;100.00
967;BME280;56108;48.730;9.304;2023-08-12T05:13:45;97715.56;;;19.01;100.00
967;BME280;56108;48.730;9.304;2023-08-12T05:16:34;97713.03;;;18.82;100.00
967;BME280;56108;48.730;9.304;2023-08-12T05:18:42;97718.41;;;18.99;100.00
967;BME280;56108;48.730;9.304;2023-08-12T05:20:52;97732.50;;;19.11;100.00
967;BME280;56108;48.730;9.304;2023-08-12T05:23:05;97734.84;;;19.32;100.00
967;BME280;56108;48.730;9.304;2023-08-12T05:25:13;97730.22;;;19.68;100.00
967;BME280;56108;48.730;9.304;2023-08-12T05:27:22;97731.19;;;19.59;100.00
967;BME280;56108;48.730;9.304;2023-08-12T05:29:30;97730.44;;;19.57;100.00
967;BME280;56108;48.730;9.304;2023-08-12T05:31:41;97732.47;;;19.55;100.00
967;BME280;56108;48.730;9.304;2023-08-12T05:33:53;97726.63;;;19.60;100.00
967;BME280;56108;48.730;9.304;2023-08-12T05:36:01;97720.38;;;19.59;100.00
967;BME280;56108;48.730;9.304;2023-08-12T05:38:13;97711.16;;;19.44;100.00
967;BME280;56108;48.730;9.304;2023-08-12T05:40:22;97704.53;;;19.64;100.00
967;BME280;56108;48.730;9.304;2023-08-12T05:42:30;97728.16;;;20.04;100.00
967;BME280;56108;48.730;9.304;2023-08-12T05:44:40;97720.78;;;20.15;100.00
967;BME280;56108;48.730;9.304;2023-08-12T05:46:49;97729.41;;;20.10;100.00
967;BME280;56108;48.730;9.304;2023-08-12T05:49:00;97746.25;;;20.04;100.00
967;BME280;56108;48.730;9.304;2023-08-12T05:51:08;97748.31;;;20.10;100.00
967;BME280;56108;48.730;9.304;2023-08-12T05:53:22;97754.44;;;20.28;100.00
967;BME280;56108;48.730;9.304;2023-08-12T05:55:33;97743.47;;;20.30;100.00
967;BME280;56108;48.730;9.304;2023-08-12T05:57:42;97742.84;;;20.36;100.00
967;BME280;56108;48.730;9.304;2023-08-12T05:59:51;97740.63;;;20.40;100.00
967;BME280;56108;48.730;9.304;2023-08-12T06:01:59;97738.22;;;20.20;100.00
967;BME280;56108;48.730;9.304;2023-08-12T06:04:07;97733.34;;;20.32;100.00
967;BME280;56108;48.730;9.304;2023-08-12T06:06:15;97739.69;;;20.49;100.00
967;BME280;56108;48.730;9.304;2023-08-12T06:08:27;97744.31;;;20.89;100.00
967;BME280;56108;48.730;9.304;2023-08-12T06:10:35;97742.78;;;20.87;100.00
967;BME280;56108;48.730;9.304;2023-08-12T06:12:45;97740.25;;;21.01;100.00
967;BME280;56108;48.730;9.304;2023-08-12T06:15:01;97747.16;;;20.88;100.00
967;BME280;56108;48.730;9.304;2023-08-12T06:17:10;97751.91;;;20.85;100.00
967;BME280;56108;48.730;9.304;2023-08-12T06:19:19;97753.94;;;21.24;100.00
967;BME280;56108;48.730;9.304;2023-08-12T06:21:27;97743.13;;;21.49;100.00
967;BME280;56108;48.730;9.304;2023-08-12T06:23:39;97732.16;;;21.09;100.00
967;BME280;56108;48.730;9.304;2023-08-12T06:25:51;97708.28;;;20.97;100.00
967;BME280;56108;48.730;9.304;2023-08-12T06:28:00;97715.72;;;21.27;100.00
967;BME280;56108;48.730;9.304;2023-08-12T06:30:10;97714.41;;;21.31;100.00
967;BME280;56108;48.730;9.304;2023-08-12T06:32:19;97718.94;;;21.06;100.00
967;BME280;56108;48.730;9.304;2023-08-12T06:34:27;97733.50;;;21.05;100.00
967;BME280;56108;48.730;9.304;2023-08-12T06:36:35;97737.91;;;21.31;100.00
967;BME280;56108;48.730;9.304;2023-08-12T06:38:47;97743.63;;;21.44;100.00
967;BME280;56108;48.730;9.304;2023-08-12T06:40:55;97738.69;;;21.72;100.00
967;BME280;56108;48.730;9.304;2023-08-12T06:43:08;97730.25;;;21.67;100.00
967;BME280;56108;48.730;9.304;2023-08-12T06:45:17;97725.66;;;21.68;100.00
967;BME280;56108;48.730;9.304;2023-08-12T06:47:29;97723.50;;;21.47;100.00
967;BME280;56108;48.730;9.304;2023-08-12T06:49:39;97719.16;;;21.85;100.00
967;BME280;56108;48.730;9.304;2023-08-12T06:51:47;97727.34;;;22.24;100.00
967;BME280;56108;48.730;9.304;2023-08-12T06:53:58;97726.81;;;22.83;100.00
967;BME280;56108;48.730;9.304;2023-08-12T06:56:06;97725.41;;;24.00;100.00
967;BME280;56108;48.730;9.304;2023-08-12T06:58:15;97731.22;;;25.98;92.14
967;BME280;56108;48.730;9.304;2023-08-12T07:00:25;97739.97;;;26.76;81.30
967;BME280;56108;48.730;9.304;2023-08-12T07:02:34;97746.16;;;26.09;81.00
967;BME280;56108;48.730;9.304;2023-08-12T07:04:44;97750.41;;;25.83;81.48
967;BME280;56108;48.730;9.304;2023-08-12T07:06:53;97757.25;;;26.90;76.54
967;BME280;56108;48.730;9.304;2023-08-12T07:09:04;97763.56;;;28.43;67.85
967;BME280;56108;48.730;9.304;2023-08-12T07:11:13;97793.47;;;29.90;58.60
967;BME280;56108;48.730;9.304;2023-08-12T07:13:21;97794.47;;;30.21;52.88
967;BME280;56108;48.730;9.304;2023-08-12T07:15:26;97806.63;;;30.87;51.58
967;BME280;56108;48.730;9.304;2023-08-12T07:17:34;97817.75;;;32.76;47.75
967;BME280;56108;48.730;9.304;2023-08-12T07:19:47;97835.78;;;33.47;43.59
967;BME280;56108;48.730;9.304;2023-08-12T07:21:59;97822.69;;;32.15;46.83
967;BME280;56108;48.730;9.304;2023-08-12T07:24:12;97846.63;;;34.50;41.56
967;BME280;56108;48.730;9.304;2023-08-12T07:26:24;97844.50;;;35.18;40.35
967;BME280;56108;48.730;9.304;2023-08-12T07:28:32;97827.78;;;33.80;41.77
967;BME280;56108;48.730;9.304;2023-08-12T07:30:46;97832.31;;;34.53;39.88
967;BME280;56108;48.730;9.304;2023-08-12T07:32:55;97826.34;;;33.60;41.07
967;BME280;56108;48.730;9.304;2023-08-12T07:35:04;97831.56;;;34.79;40.34
967;BME280;56108;48.730;9.304;2023-08-12T07:37:17;97838.53;;;36.87;36.64
967;BME280;56108;48.730;9.304;2023-08-12T07:39:29;97856.94;;;38.47;33.89
967;BME280;56108;48.730;9.304;2023-08-12T07:41:43;97855.84;;;38.43;32.28
967;BME280;56108;48.730;9.304;2023-08-12T07:43:51;97843.84;;;35.54;36.56
967;BME280;56108;48.730;9.304;2023-08-12T07:46:00;97809.06;;;33.36;41.30
967;BME280;56108;48.730;9.304;2023-08-12T07:48:14;97802.34;;;31.39;46.74
967;BME280;56108;48.730;9.304;2023-08-12T07:50:24;97786.63;;;29.75;52.18
967;BME280;56108;48.730;9.304;2023-08-12T07:52:33;97753.84;;;28.53;59.46
967;BME280;56108;48.730;9.304;2023-08-12T07:54:43;97739.25;;;27.28;67.17
967;BME280;56108;48.730;9.304;2023-08-12T07:56:52;97731.50;;;26.51;71.90
967;BME280;56108;48.730;9.304;2023-08-12T07:59:01;97729.75;;;25.95;77.57
967;BME280;56108;48.730;9.304;2023-08-12T08:01:11;97723.66;;;25.72;80.22
967;BME280;56108;48.730;9.304;2023-08-12T08:03:20;97722.72;;;25.30;83.39
967;BME280;56108;48.730;9.304;2023-08-12T08:05:30;97718.91;;;25.03;87.02
967;BME280;56108;48.730;9.304;2023-08-12T08:07:40;97732.56;;;25.31;85.86
967;BME280;56108;48.730;9.304;2023-08-12T08:09:50;97736.47;;;25.43;85.27
967;BME280;56108;48.730;9.304;2023-08-12T08:12:02;97730.28;;;25.07;88.43
967;BME280;56108;48.730;9.304;2023-08-12T08:14:10;97730.06;;;25.30;87.29
967;BME280;56108;48.730;9.304;2023-08-12T08:16:18;97731.06;;;25.22;84.23
967;BME280;56108;48.730;9.304;2023-08-12T08:18:30;97727.00;;;24.96;87.99
967;BME280;56108;48.730;9.304;2023-08-12T08:20:41;97722.63;;;25.17;87.22
967;BME280;56108;48.730;9.304;2023-08-12T08:22:53;97730.66;;;25.25;84.33
967;BME280;56108;48.730;9.304;2023-08-12T08:25:05;97730.91;;;25.30;84.57
967;BME280;56108;48.730;9.304;2023-08-12T08:27:13;97727.38;;;25.36;82.99
967;BME280;56108;48.730;9.304;2023-08-12T08:29:22;97717.56;;;25.42;83.02
967;BME280;56108;48.730;9.304;2023-08-12T08:31:30;97720.00;;;25.30;83.97
967;BME280;56108;48.730;9.304;2023-08-12T08:33:38;97710.19;;;25.08;85.41
967;BME280;56108;48.730;9.304;2023-08-12T08:35:49;97718.00;;;25.39;83.18
967;BME280;56108;48.730;9.304;2023-08-12T08:37:57;97717.41;;;25.43;84.23
967;BME280;56108;48.730;9.304;2023-08-12T08:40:10;97717.16;;;25.73;81.25
967;BME280;56108;48.730;9.304;2023-08-12T08:42:20;97721.59;;;26.02;81.42
967;BME280;56108;48.730;9.304;2023-08-12T08:44:36;97722.31;;;26.17;80.74
967;BME280;56108;48.730;9.304;2023-08-12T08:46:52;97725.19;;;26.50;78.18
967;BME280;56108;48.730;9.304;2023-08-12T08:49:07;97736.09;;;27.12;75.98
967;BME280;56108;48.730;9.304;2023-08-12T08:51:14;97743.44;;;27.11;73.29
967;BME280;56108;48.730;9.304;2023-08-12T08:53:23;97734.41;;;27.11;74.14
967;BME280;56108;48.730;9.304;2023-08-12T08:55:34;97745.56;;;27.22;71.55
967;BME280;56108;48.730;9.304;2023-08-12T08:57:43;97749.78;;;27.65;69.73
967;BME280;56108;48.730;9.304;2023-08-12T08:59:52;97761.56;;;27.98;63.99
967;BME280;56108;48.730;9.304;2023-08-12T09:02:06;97754.31;;;28.37;62.80
967;BME280;56108;48.730;9.304;2023-08-12T09:04:21;97760.38;;;28.52;61.97
967;BME280;56108;48.730;9.304;2023-08-12T09:06:30;97763.13;;;28.32;60.69
967;BME280;56108;48.730;9.304;2023-08-12T09:08:41;97753.75;;;28.02;63.25
967;BME280;56108;48.730;9.304;2023-08-12T09:10:57;97741.16;;;27.94;65.91
967;BME280;56108;48.730;9.304;2023-08-12T09:13:07;97744.53;;;27.43;66.63
967;BME280;56108;48.730;9.304;2023-08-12T09:15:16;97745.59;;;27.75;65.25
967;BME280;56108;48.730;9.304;2023-08-12T09:17:27;97758.59;;;28.06;63.47
967;BME280;56108;48.730;9.304;2023-08-12T09:19:37;97763.47;;;27.85;59.44
967;BME280;56108;48.730;9.304;2023-08-12T09:21:51;97751.59;;;28.30;63.00
967;BME280;56108;48.730;9.304;2023-08-12T09:24:05;97762.28;;;28.52;57.88
967;BME280;56108;48.730;9.304;2023-08-12T09:26:20;97764.81;;;28.98;57.27
967;BME280;56108;48.730;9.304;2023-08-12T09:28:28;97775.41;;;29.51;54.32
967;BME280;56108;48.730;9.304;2023-08-12T09:30:37;97778.47;;;30.11;52.08
967;BME280;56108;48.730;9.304;2023-08-12T09:32:57;97777.50;;;29.81;51.99
967;BME280;56108;48.730;9.304;2023-08-12T09:35:15;97770.22;;;30.55;52.62
967;BME280;56108;48.730;9.304;2023-08-12T09:37:25;97779.84;;;31.12;49.26
967;BME280;56108;48.730;9.304;2023-08-12T09:39:34;97798.03;;;31.97;45.74
967;BME280;56108;48.730;9.304;2023-08-12T09:41:45;97803.38;;;33.14;42.76
967;BME280;56108;48.730;9.304;2023-08-12T09:43:55;97804.03;;;33.79;40.53
967;BME280;56108;48.730;9.304;2023-08-12T09:46:05;97797.78;;;33.83;40.84
967;BME280;56108;48.730;9.304;2023-08-12T09:48:16;97809.22;;;34.09;39.52
967;BME280;56108;48.730;9.304;2023-08-12T09:50:26;97801.84;;;34.31;40.07
967;BME280;56108;48.730;9.304;2023-08-12T09:52:35;97802.88;;;34.25;38.94
967;BME280;56108;48.730;9.304;2023-08-12T09:54:45;97802.75;;;34.37;38.33
967;BME280;56108;48.730;9.304;2023-08-12T09:56:59;97797.66;;;34.45;36.48
967;BME280;56108;48.730;9.304;2023-08-12T09:59:12;97789.78;;;34.37;35.84
967;BME280;56108;48.730;9.304;2023-08-12T10:01:21;97775.66;;;33.66;39.68
967;BME280;56108;48.730;9.304;2023-08-12T10:03:33;97767.31;;;33.33;40.49
967;BME280;56108;48.730;9.304;2023-08-12T10:05:41;97769.88;;;33.06;38.36
967;BME280;56108;48.730;9.304;2023-08-12T10:07:50;97761.03;;;32.05;40.90
967;BME280;56108;48.730;9.304;2023-08-12T10:10:01;97758.59;;;31.61;41.80
967;BME280;56108;48.730;9.304;2023-08-12T10:12:14;97743.63;;;31.57;42.50
967;BME280;56108;48.730;9.304;2023-08-12T10:14:24;97733.63;;;32.10;41.34
967;BME280;56108;48.730;9.304;2023-08-12T10:16:32;97727.69;;;32.65;40.15
967;BME280;56108;48.730;9.304;2023-08-12T10:18:42;97732.81;;;32.61;41.23
967;BME280;56108;48.730;9.304;2023-08-12T10:20:51;97734.59;;;32.79;39.24
967;BME280;56108;48.730;9.304;2023-08-12T10:23:02;97736.13;;;32.23;42.48
967;BME280;56108;48.730;9.304;2023-08-12T10:25:13;97752.28;;;31.84;42.15
967;BME280;56108;48.730;9.304;2023-08-12T10:27:25;97748.91;;;31.59;44.06
967;BME280;56108;48.730;9.304;2023-08-12T10:29:37;97744.25;;;31.17;44.65
967;BME280;56108;48.730;9.304;2023-08-12T10:31:46;97739.91;;;31.40;44.68
967;BME280;56108;48.730;9.304;2023-08-12T10:33:58;97739.66;;;31.41;44.61
967;BME280;56108;48.730;9.304;2023-08-12T10:36:06;97733.94;;;31.43;45.79
967;BME280;56108;48.730;9.304;2023-08-12T10:38:17;97730.31;;;31.31;44.97
967;BME280;56108;48.730;9.304;2023-08-12T10:40:28;97736.47;;;31.56;44.46
967;BME280;56108;48.730;9.304;2023-08-12T10:42:46;97736.00;;;31.94;43.95
967;BME280;56108;48.730;9.304;2023-08-12T10:44:57;97737.59;;;31.90;43.09
967;BME280;56108;48.730;9.304;2023-08-12T10:47:08;97745.22;;;32.35;43.26
967;BME280;56108;48.730;9.304;2023-08-12T10:49:19;97748.44;;;32.20;42.36
967;BME280;56108;48.730;9.304;2023-08-12T10:51:39;97749.19;;;32.39;42.46
967;BME280;56108;48.730;9.304;2023-08-12T10:53:49;97746.13;;;32.64;42.41
967;BME280;56108;48.730;9.304;2023-08-12T10:55:58;97749.28;;;32.44;43.13
967;BME280;56108;48.730;9.304;2023-08-12T10:58:09;97745.59;;;32.79;42.59
967;BME280;56108;48.730;9.304;2023-08-12T11:00:23;97762.03;;;34.10;41.11
967;BME280;56108;48.730;9.304;2023-08-12T11:02:32;97762.91;;;34.33;40.20
967;BME280;56108;48.730;9.304;2023-08-12T11:04:42;97758.44;;;34.70;39.41
967;BME280;56108;48.730;9.304;2023-08-12T11:06:51;97756.50;;;34.10;38.86
967;BME280;56108;48.730;9.304;2023-08-12T11:08:59;97745.31;;;32.92;42.08
967;BME280;56108;48.730;9.304;2023-08-12T11:11:19;97741.13;;;33.47;40.90
967;BME280;56108;48.730;9.304;2023-08-12T11:13:31;97743.88;;;34.53;40.06
967;BME280;56108;48.730;9.304;2023-08-12T11:15:42;97744.63;;;34.48;40.16
967;BME280;56108;48.730;9.304;2023-08-12T11:17:51;97742.03;;;34.42;39.91
967;BME280;56108;48.730;9.304;2023-08-12T11:19:59;97737.00;;;34.17;39.49
967;BME280;56108;48.730;9.304;2023-08-12T11:22:05;97732.66;;;33.87;40.57
967;BME280;56108;48.730;9.304;2023-08-12T11:24:13;97738.53;;;33.57;40.95
967;BME280;56108;48.730;9.304;2023-08-12T11:26:23;97732.41;;;34.06;41.02
967;BME280;56108;48.730;9.304;2023-08-12T11:28:37;97731.06;;;33.91;40.01
967;BME280;56108;48.730;9.304;2023-08-12T11:30:46;97725.38;;;33.81;41.23
967;BME280;56108;48.730;9.304;2023-08-12T11:32:56;97718.47;;;33.95;41.35
967;BME280;56108;48.730;9.304;2023-08-12T11:35:03;97717.09;;;34.15;39.62
967;BME280;56108;48.730;9.304;2023-08-12T11:37:13;97707.66;;;33.60;39.87
967;BME280;56108;48.730;9.304;2023-08-12T11:39:21;97704.81;;;33.55;41.81
967;BME280;56108;48.730;9.304;2023-08-12T11:41:29;97695.59;;;33.33;41.65
967;BME280;56108;48.730;9.304;2023-08-12T11:43:40;97696.97;;;33.02;41.01
967;BME280;56108;48.730;9.304;2023-08-12T11:45:48;97685.94;;;33.02;42.17
967;BME280;56108;48.730;9.304;2023-08-12T11:47:57;97674.56;;;32.69;43.02
967;BME280;56108;48.730;9.304;2023-08-12T11:50:09;97666.25;;;32.81;43.82
967;BME280;56108;48.730;9.304;2023-08-12T11:52:18;97660.88;;;33.03;43.14
967;BME280;56108;48.730;9.304;2023-08-12T11:54:26;97657.63;;;33.06;42.10
967;BME280;56108;48.730;9.304;2023-08-12T11:56:34;97666.47;;;32.91;41.85
967;BME280;56108;48.730;9.304;2023-08-12T11:58:48;97667.31;;;32.52;42.21
967;BME280;56108;48.730;9.304;2023-08-12T12:01:01;97669.69;;;32.60;42.92
967;BME280;56108;48.730;9.304;2023-08-12T12:03:11;97683.38;;;32.83;42.62
967;BME280;56108;48.730;9.304;2023-08-12T12:05:22;97711.19;;;32.82;42.53
967;BME280;56108;48.730;9.304;2023-08-12T12:07:31;97713.31;;;32.63;43.08
967;BME280;56108;48.730;9.304;2023-08-12T12:09:43;97713.44;;;32.56;43.44
967;BME280;56108;48.730;9.304;2023-08-12T12:11:52;97714.22;;;32.05;44.09
967;BME280;56108;48.730;9.304;2023-08-12T12:14:05;97710.75;;;31.51;45.56
967;BME280;56108;48.730;9.304;2023-08-12T12:16:12;97705.50;;;31.07;45.24
967;BME280;56108;48.730;9.304;2023-08-12T12:18:20;97700.00;;;30.77;46.86
967;BME280;56108;48.730;9.304;2023-08-12T12:20:28;97699.34;;;30.27;47.99
967;BME280;56108;48.730;9.304;2023-08-12T12:22:37;97709.97;;;30.23;49.55
967;BME280;56108;48.730;9.304;2023-08-12T12:24:46;97721.13;;;29.85;49.23
967;BME280;56108;48.730;9.304;2023-08-12T12:26:54;97729.88;;;29.50;48.70
967;BME280;56108;48.730;9.304;2023-08-12T12:29:07;97703.13;;;28.82;57.38
967;BME280;56108;48.730;9.304;2023-08-12T12:31:18;97678.25;;;27.81;68.33
967;BME280;56108;48.730;9.304;2023-08-12T12:33:26;97672.19;;;26.99;77.40
967;BME280;56108;48.730;9.304;2023-08-12T12:35:36;97664.31;;;26.57;83.16
967;BME280;56108;48.730;9.304;2023-08-12T12:38:01;97687.38;;;25.99;100.00
967;BME280;56108;48.730;9.304;2023-08-12T12:40:10;97707.53;;;24.78;100.00
967;BME280;56108;48.730;9.304;2023-08-12T12:42:19;97701.22;;;23.90;100.00
967;BME280;56108;48.730;9.304;2023-08-12T12:44:30;97693.38;;;23.28;100.00
967;BME280;56108;48.730;9.304;2023-08-12T12:46:38;97695.84;;;23.00;100.00
967;BME280;56108;48.730;9.304;2023-08-12T12:48:47;97698.53;;;22.54;100.00
967;BME280;56108;48.730;9.304;2023-08-12T12:50:55;97707.56;;;22.47;100.00
967;BME280;56108;48.730;9.304;2023-08-12T12:53:04;97725.94;;;22.36;100.00
967;BME280;56108;48.730;9.304;2023-08-12T12:55:12;97726.66;;;22.30;100.00
967;BME280;56108;48.730;9.304;2023-08-12T12:57:20;97714.47;;;22.18;100.00
967;BME280;56108;48.730;9.304;2023-08-12T12:59:31;97697.91;;;22.13;100.00
967;BME280;56108;48.730;9.304;2023-08-12T13:01:39;97703.22;;;21.98;100.00
967;BME280;56108;48.730;9.304;2023-08-12T13:03:48;97717.69;;;21.66;100.00
967;BME280;56108;48.730;9.304;2023-08-12T13:05:56;97731.88;;;21.84;100.00
967;BME280;56108;48.730;9.304;2023-08-12T13:08:05;97726.78;;;21.81;100.00
967;BME280;56108;48.730;9.304;2023-08-12T13:10:13;97714.78;;;21.76;100.00
967;BME280;56108;48.730;9.304;2023-08-12T13:12:22;97683.44;;;21.81;100.00
967;BME280;56108;48.730;9.304;2023-08-12T13:14:33;97691.44;;;21.75;100.00
967;BME280;56108;48.730;9.304;2023-08-12T13:16:42;97702.47;;;21.65;100.00